sensor_id;sensor_type;location;lat;lon;timestamp;P1;durP1;ratioP1;P2;durP2;ratioP2
21546;SDS011;41275;51.912;4.388;2023-11-21T00:04:05;7.43;;;3.05;;
21546;SDS011;41275;51.912;4.388;2023-11-21T00:09:28;8.20;;;2.67;;
21546;SDS011;41275;51.912;4.388;2023-11-21T00:14:52;9.53;;;2.77;;
21546;SDS011;41275;51.912;4.388;2023-11-21T00:20:16;10.03;;;2.70;;
21546;SDS011;41275;51.912;4.388;2023-11-21T00:25:41;8.50;;;3.13;;
21546;SDS011;41275;51.912;4.388;2023-11-21T00:31:02;9.45;;;2.28;;
21546;SDS011;41275;51.912;4.388;2023-11-21T00:36:25;8.17;;;2.40;;
21546;SDS011;41275;51.912;4.388;2023-11-21T00:41:47;7.90;;;2.55;;
21546;SDS011;41275;51.912;4.388;2023-11-21T00:47:09;6.95;;;2.08;;
21546;SDS011;41275;51.912;4.388;2023-11-21T00:52:30;9.10;;;2.30;;
21546;SDS011;41275;51.912;4.388;2023-11-21T00:57:52;7.47;;;3.03;;
21546;SDS011;41275;51.912;4.388;2023-11-21T01:03:13;5.85;;;2.22;;
21546;SDS011;41275;51.912;4.388;2023-11-21T01:08:34;9.07;;;2.45;;
21546;SDS011;41275;51.912;4.388;2023-11-21T01:13:56;4.78;;;2.08;;
21546;SDS011;41275;51.912;4.388;2023-11-21T01:19:18;9.00;;;2.17;;
21546;SDS011;41275;51.912;4.388;2023-11-21T01:24:39;6.15;;;2.08;;
21546;SDS011;41275;51.912;4.388;2023-11-21T01:30:02;8.65;;;2.17;;
21546;SDS011;41275;51.912;4.388;2023-11-21T01:35:24;7.65;;;1.95;;
21546;SDS011;41275;51.912;4.388;2023-11-21T01:40:45;5.57;;;2.28;;
21546;SDS011;41275;51.912;4.388;2023-11-21T01:46:08;8.13;;;2.20;;
21546;SDS011;41275;51.912;4.388;2023-11-21T01:51:30;8.33;;;2.40;;
21546;SDS011;41275;51.912;4.388;2023-11-21T01:56:52;11.30;;;2.25;;
21546;SDS011;41275;51.912;4.388;2023-11-21T02:02:13;5.43;;;2.20;;
21546;SDS011;41275;51.912;4.388;2023-11-21T02:07:34;3.33;;;1.83;;
21546;SDS011;41275;51.912;4.388;2023-11-21T02:12:56;5.07;;;1.92;;
21546;SDS011;41275;51.912;4.388;2023-11-21T02:18:17;4.05;;;1.75;;
21546;SDS011;41275;51.912;4.388;2023-11-21T02:23:39;5.60;;;2.13;;
21546;SDS011;41275;51.912;4.388;2023-11-21T02:29:04;4.90;;;1.97;;
21546;SDS011;41275;51.912;4.388;2023-11-21T02:34:26;7.73;;;2.20;;
21546;SDS011;41275;51.912;4.388;2023-11-21T02:39:47;7.03;;;1.98;;
21546;SDS011;41275;51.912;4.388;2023-11-21T02:45:08;4.75;;;1.70;;
21546;SDS011;41275;51.912;4.388;2023-11-21T02:50:50;4.88;;;2.05;;
21546;SDS011;41275;51.912;4.388;2023-11-21T02:56:11;5.63;;;1.83;;
21546;SDS011;41275;51.912;4.388;2023-11-21T03:01:33;4.05;;;2.08;;
21546;SDS011;41275;51.912;4.388;2023-11-21T03:06:54;9.27;;;2.00;;
21546;SDS011;41275;51.912;4.388;2023-11-21T03:12:15;4.75;;;1.80;;
21546;SDS011;41275;51.912;4.388;2023-11-21T03:17:36;5.55;;;1.80;;
21546;SDS011;41275;51.912;4.388;2023-11-21T03:22:58;6.72;;;1.77;;
21546;SDS011;41275;51.912;4.388;2023-11-21T03:28:20;4.40;;;1.80;;
21546;SDS011;41275;51.912;4.388;2023-11-21T03:33:41;5.40;;;2.03;;
21546;SDS011;41275;51.912;4.388;2023-11-21T03:39:03;5.00;;;1.87;;
21546;SDS011;41275;51.912;4.388;2023-11-21T03:44:24;7.78;;;2.03;;
21546;SDS011;41275;51.912;4.388;2023-11-21T03:49:45;6.07;;;2.25;;
21546;SDS011;41275;51.912;4.388;2023-11-21T03:55:07;5.82;;;2.20;;
21546;SDS011;41275;51.912;4.388;2023-11-21T04:00:31;5.13;;;2.05;;
21546;SDS011;41275;51.912;4.388;2023-11-21T04:05:52;5.65;;;1.88;;
21546;SDS011;41275;51.912;4.388;2023-11-21T04:11:13;6.53;;;2.20;;
21546;SDS011;41275;51.912;4.388;2023-11-21T04:16:36;6.70;;;2.00;;
21546;SDS011;41275;51.912;4.388;2023-11-21T04:21:57;6.82;;;2.30;;
21546;SDS011;41275;51.912;4.388;2023-11-21T04:27:19;6.43;;;2.57;;
21546;SDS011;41275;51.912;4.388;2023-11-21T04:32:40;5.33;;;2.37;;
21546;SDS011;41275;51.912;4.388;2023-11-21T04:38:02;5.40;;;2.17;;
21546;SDS011;41275;51.912;4.388;2023-11-21T04:43:23;3.97;;;1.90;;
21546;SDS011;41275;51.912;4.388;2023-11-21T04:48:45;5.50;;;2.03;;
21546;SDS011;41275;51.912;4.388;2023-11-21T04:54:06;4.88;;;2.10;;
21546;SDS011;41275;51.912;4.388;2023-11-21T04:59:27;5.13;;;2.35;;
21546;SDS011;41275;51.912;4.388;2023-11-21T05:04:48;3.95;;;1.88;;
21546;SDS011;41275;51.912;4.388;2023-11-21T05:10:10;4.75;;;2.15;;
21546;SDS011;41275;51.912;4.388;2023-11-21T05:15:35;7.67;;;2.20;;
21546;SDS011;41275;51.912;4.388;2023-11-21T05:20:56;5.33;;;1.87;;
21546;SDS011;41275;51.912;4.388;2023-11-21T05:26:18;4.28;;;1.80;;
21546;SDS011;41275;51.912;4.388;2023-11-21T05:31:39;3.50;;;1.57;;
21546;SDS011;41275;51.912;4.388;2023-11-21T05:37:00;5.80;;;2.03;;
21546;SDS011;41275;51.912;4.388;2023-11-21T05:42:22;4.63;;;1.90;;
21546;SDS011;41275;51.912;4.388;2023-11-21T05:47:44;3.35;;;1.42;;
21546;SDS011;41275;51.912;4.388;2023-11-21T05:53:07;4.20;;;1.80;;
21546;SDS011;41275;51.912;4.388;2023-11-21T05:58:30;3.57;;;1.63;;
21546;SDS011;41275;51.912;4.388;2023-11-21T06:03:52;3.65;;;1.63;;
21546;SDS011;41275;51.912;4.388;2023-11-21T06:09:13;3.08;;;1.38;;
21546;SDS011;41275;51.912;4.388;2023-11-21T06:14:34;3.45;;;1.45;;
21546;SDS011;41275;51.912;4.388;2023-11-21T06:19:56;3.03;;;1.50;;
21546;SDS011;41275;51.912;4.388;2023-11-21T06:25:17;3.53;;;1.60;;
21546;SDS011;41275;51.912;4.388;2023-11-21T06:30:38;3.50;;;1.50;;
21546;SDS011;41275;51.912;4.388;2023-11-21T06:36:00;4.05;;;1.80;;
21546;SDS011;41275;51.912;4.388;2023-11-21T06:41:24;4.25;;;1.65;;
21546;SDS011;41275;51.912;4.388;2023-11-21T06:46:45;3.33;;;1.57;;
21546;SDS011;41275;51.912;4.388;2023-11-21T06:52:09;5.60;;;1.67;;
21546;SDS011;41275;51.912;4.388;2023-11-21T06:57:31;4.73;;;1.37;;
21546;SDS011;41275;51.912;4.388;2023-11-21T07:02:52;2.72;;;1.23;;
21546;SDS011;41275;51.912;4.388;2023-11-21T07:08:13;3.72;;;1.17;;
21546;SDS011;41275;51.912;4.388;2023-11-21T07:13:35;2.60;;;1.00;;
21546;SDS011;41275;51.912;4.388;2023-11-21T07:18:56;2.65;;;1.30;;
21546;SDS011;41275;51.912;4.388;2023-11-21T07:24:17;3.83;;;1.05;;
21546;SDS011;41275;51.912;4.388;2023-11-21T07:29:39;2.47;;;1.23;;
21546;SDS011;41275;51.912;4.388;2023-11-21T07:35:01;4.47;;;1.30;;
21546;SDS011;41275;51.912;4.388;2023-11-21T07:40:22;4.53;;;1.33;;
21546;SDS011;41275;51.912;4.388;2023-11-21T07:45:44;4.00;;;1.38;;
21546;SDS011;41275;51.912;4.388;2023-11-21T07:51:05;5.03;;;1.60;;
21546;SDS011;41275;51.912;4.388;2023-11-21T07:56:27;4.63;;;1.45;;
21546;SDS011;41275;51.912;4.388;2023-11-21T08:01:49;6.05;;;1.42;;
21546;SDS011;41275;51.912;4.388;2023-11-21T08:07:10;5.20;;;1.20;;
21546;SDS011;41275;51.912;4.388;2023-11-21T08:12:31;4.90;;;1.20;;
21546;SDS011;41275;51.912;4.388;2023-11-21T08:17:53;3.78;;;1.17;;
21546;SDS011;41275;51.912;4.388;2023-11-21T08:23:15;4.32;;;1.40;;
21546;SDS011;41275;51.912;4.388;2023-11-21T08:28:39;6.32;;;1.50;;
21546;SDS011;41275;51.912;4.388;2023-11-21T08:34:20;5.47;;;1.43;;
21546;SDS011;41275;51.912;4.388;2023-11-21T08:39:42;4.33;;;1.47;;
21546;SDS011;41275;51.912;4.388;2023-11-21T08:45:05;6.18;;;1.13;;
21546;SDS011;41275;51.912;4.388;2023-11-21T08:50:29;4.80;;;1.23;;
21546;SDS011;41275;51.912;4.388;2023-11-21T08:55:51;6.30;;;1.50;;
21546;SDS011;41275;51.912;4.388;2023-11-21T09:01:12;5.87;;;1.33;;
21546;SDS011;41275;51.912;4.388;2023-11-21T09:06:34;4.18;;;1.00;;
21546;SDS011;41275;51.912;4.388;2023-11-21T09:11:56;4.28;;;1.33;;
21546;SDS011;41275;51.912;4.388;2023-11-21T09:17:18;10.02;;;2.20;;
21546;SDS011;41275;51.912;4.388;2023-11-21T09:22:39;5.20;;;2.07;;
21546;SDS011;41275;51.912;4.388;2023-11-21T09:28:01;9.33;;;2.80;;
21546;SDS011;41275;51.912;4.388;2023-11-21T09:33:22;4.55;;;1.45;;
21546;SDS011;41275;51.912;4.388;2023-11-21T09:38:45;4.22;;;1.67;;
21546;SDS011;41275;51.912;4.388;2023-11-21T09:44:07;4.57;;;1.35;;
21546;SDS011;41275;51.912;4.388;2023-11-21T09:49:33;3.10;;;1.20;;
21546;SDS011;41275;51.912;4.388;2023-11-21T09:54:56;5.20;;;1.80;;
21546;SDS011;41275;51.912;4.388;2023-11-21T10:00:21;5.45;;;1.77;;
21546;SDS011;41275;51.912;4.388;2023-11-21T10:05:45;4.85;;;2.20;;
21546;SDS011;41275;51.912;4.388;2023-11-21T10:11:07;4.55;;;1.88;;
21546;SDS011;41275;51.912;4.388;2023-11-21T10:16:32;5.45;;;1.98;;
21546;SDS011;41275;51.912;4.388;2023-11-21T10:21:53;5.15;;;2.08;;
21546;SDS011;41275;51.912;4.388;2023-11-21T10:27:15;5.27;;;1.80;;
21546;SDS011;41275;51.912;4.388;2023-11-21T10:32:36;6.70;;;2.10;;
21546;SDS011;41275;51.912;4.388;2023-11-21T10:38:01;6.78;;;2.10;;
21546;SDS011;41275;51.912;4.388;2023-11-21T10:43:25;9.02;;;2.22;;
21546;SDS011;41275;51.912;4.388;2023-11-21T10:48:51;3.23;;;1.93;;
21546;SDS011;41275;51.912;4.388;2023-11-21T10:54:21;5.68;;;1.80;;
21546;SDS011;41275;51.912;4.388;2023-11-21T10:59:47;4.38;;;2.15;;
21546;SDS011;41275;51.912;4.388;2023-11-21T11:05:11;5.20;;;1.73;;
21546;SDS011;41275;51.912;4.388;2023-11-21T11:10:33;4.77;;;2.20;;
21546;SDS011;41275;51.912;4.388;2023-11-21T11:15:57;4.28;;;2.33;;
21546;SDS011;41275;51.912;4.388;2023-11-21T11:27:29;4.05;;;2.28;;
21546;SDS011;41275;51.912;4.388;2023-11-21T11:33:04;4.90;;;2.43;;
21546;SDS011;41275;51.912;4.388;2023-11-21T11:38:46;4.88;;;2.25;;
21546;SDS011;41275;51.912;4.388;2023-11-21T11:44:46;4.80;;;2.30;;
21546;SDS011;41275;51.912;4.388;2023-11-21T11:50:12;5.87;;;2.40;;
21546;SDS011;41275;51.912;4.388;2023-11-21T11:55:37;7.72;;;3.30;;
21546;SDS011;41275;51.912;4.388;2023-11-21T12:00:58;6.25;;;3.25;;
21546;SDS011;41275;51.912;4.388;2023-11-21T12:06:29;6.57;;;3.30;;
21546;SDS011;41275;51.912;4.388;2023-11-21T12:11:54;5.47;;;2.90;;
21546;SDS011;41275;51.912;4.388;2023-11-21T12:17:17;4.93;;;2.42;;
21546;SDS011;41275;51.912;4.388;2023-11-21T12:22:38;5.43;;;2.85;;
21546;SDS011;41275;51.912;4.388;2023-11-21T12:28:00;5.82;;;2.70;;
21546;SDS011;41275;51.912;4.388;2023-11-21T12:33:23;8.38;;;3.08;;
21546;SDS011;41275;51.912;4.388;2023-11-21T12:38:46;7.57;;;3.85;;
21546;SDS011;41275;51.912;4.388;2023-11-21T12:44:12;6.45;;;3.25;;
21546;SDS011;41275;51.912;4.388;2023-11-21T12:49:53;6.88;;;3.45;;
21546;SDS011;41275;51.912;4.388;2023-11-21T12:55:18;4.70;;;2.47;;
21546;SDS011;41275;51.912;4.388;2023-11-21T13:00:43;4.95;;;2.50;;
21546;SDS011;41275;51.912;4.388;2023-11-21T13:06:07;7.18;;;2.90;;
21546;SDS011;41275;51.912;4.388;2023-11-21T13:11:28;5.20;;;2.28;;
21546;SDS011;41275;51.912;4.388;2023-11-21T13:16:53;5.35;;;2.17;;
21546;SDS011;41275;51.912;4.388;2023-11-21T13:22:14;5.20;;;2.70;;
21546;SDS011;41275;51.912;4.388;2023-11-21T13:27:36;5.40;;;3.05;;
21546;SDS011;41275;51.912;4.388;2023-11-21T13:32:57;4.82;;;2.22;;
21546;SDS011;41275;51.912;4.388;2023-11-21T13:38:22;5.18;;;2.53;;
21546;SDS011;41275;51.912;4.388;2023-11-21T13:43:44;5.10;;;2.65;;
21546;SDS011;41275;51.912;4.388;2023-11-21T13:49:14;2.78;;;1.17;;
21546;SDS011;41275;51.912;4.388;2023-11-21T13:54:37;3.63;;;1.87;;
21546;SDS011;41275;51.912;4.388;2023-11-21T13:59:58;3.03;;;1.48;;
21546;SDS011;41275;51.912;4.388;2023-11-21T14:05:20;3.72;;;1.85;;
21546;SDS011;41275;51.912;4.388;2023-11-21T14:10:50;5.75;;;2.95;;
21546;SDS011;41275;51.912;4.388;2023-11-21T14:16:14;5.65;;;3.00;;
21546;SDS011;41275;51.912;4.388;2023-11-21T14:21:37;5.13;;;2.67;;
21546;SDS011;41275;51.912;4.388;2023-11-21T14:26:59;5.65;;;3.00;;
21546;SDS011;41275;51.912;4.388;2023-11-21T14:32:20;6.30;;;3.00;;
21546;SDS011;41275;51.912;4.388;2023-11-21T14:37:42;5.50;;;2.42;;
21546;SDS011;41275;51.912;4.388;2023-11-21T14:43:04;5.10;;;2.17;;
21546;SDS011;41275;51.912;4.388;2023-11-21T14:48:29;6.40;;;2.47;;
21546;SDS011;41275;51.912;4.388;2023-11-21T14:54:16;5.85;;;2.70;;
21546;SDS011;41275;51.912;4.388;2023-11-21T14:59:47;7.05;;;3.13;;
21546;SDS011;41275;51.912;4.388;2023-11-21T15:05:12;8.67;;;3.50;;
21546;SDS011;41275;51.912;4.388;2023-11-21T15:10:37;10.83;;;3.97;;
21546;SDS011;41275;51.912;4.388;2023-11-21T15:16:08;7.68;;;3.90;;
21546;SDS011;41275;51.912;4.388;2023-11-21T15:21:33;9.18;;;4.50;;
21546;SDS011;41275;51.912;4.388;2023-11-21T15:26:57;11.10;;;5.00;;
21546;SDS011;41275;51.912;4.388;2023-11-21T15:32:19;9.10;;;4.53;;
21546;SDS011;41275;51.912;4.388;2023-11-21T15:37:46;7.80;;;4.33;;
21546;SDS011;41275;51.912;4.388;2023-11-21T15:43:11;8.67;;;4.07;;
21546;SDS011;41275;51.912;4.388;2023-11-21T15:48:57;8.68;;;3.85;;
21546;SDS011;41275;51.912;4.388;2023-11-21T15:54:59;8.43;;;3.70;;
21546;SDS011;41275;51.912;4.388;2023-11-21T16:00:38;7.55;;;3.40;;
21546;SDS011;41275;51.912;4.388;2023-11-21T16:05:59;8.50;;;3.88;;
21546;SDS011;41275;51.912;4.388;2023-11-21T16:11:41;7.47;;;3.23;;
21546;SDS011;41275;51.912;4.388;2023-11-21T16:17:08;9.03;;;3.73;;
21546;SDS011;41275;51.912;4.388;2023-11-21T16:22:31;9.63;;;4.23;;
21546;SDS011;41275;51.912;4.388;2023-11-21T16:27:54;6.50;;;3.50;;
21546;SDS011;41275;51.912;4.388;2023-11-21T16:33:17;7.35;;;3.55;;
21546;SDS011;41275;51.912;4.388;2023-11-21T16:38:40;8.00;;;3.65;;
21546;SDS011;41275;51.912;4.388;2023-11-21T16:44:01;7.05;;;3.53;;
21546;SDS011;41275;51.912;4.388;2023-11-21T16:49:23;7.97;;;4.00;;
21546;SDS011;41275;51.912;4.388;2023-11-21T16:54:44;7.73;;;3.40;;
21546;SDS011;41275;51.912;4.388;2023-11-21T17:00:28;8.68;;;4.50;;
21546;SDS011;41275;51.912;4.388;2023-11-21T17:05:49;7.85;;;3.42;;
21546;SDS011;41275;51.912;4.388;2023-11-21T17:11:11;9.57;;;4.03;;
21546;SDS011;41275;51.912;4.388;2023-11-21T17:16:34;7.28;;;3.78;;
21546;SDS011;41275;51.912;4.388;2023-11-21T17:21:56;8.00;;;3.93;;
21546;SDS011;41275;51.912;4.388;2023-11-21T17:27:18;8.65;;;4.40;;
21546;SDS011;41275;51.912;4.388;2023-11-21T17:32:39;7.82;;;3.90;;
21546;SDS011;41275;51.912;4.388;2023-11-21T17:38:00;7.72;;;4.13;;
21546;SDS011;41275;51.912;4.388;2023-11-21T17:43:22;9.45;;;3.95;;
21546;SDS011;41275;51.912;4.388;2023-11-21T17:48:43;10.82;;;4.72;;
21546;SDS011;41275;51.912;4.388;2023-11-21T17:54:05;7.00;;;3.70;;
21546;SDS011;41275;51.912;4.388;2023-11-21T17:59:27;7.63;;;3.95;;
21546;SDS011;41275;51.912;4.388;2023-11-21T18:04:48;8.10;;;3.85;;
21546;SDS011;41275;51.912;4.388;2023-11-21T18:10:09;6.85;;;3.63;;
21546;SDS011;41275;51.912;4.388;2023-11-21T18:15:31;7.63;;;3.70;;
21546;SDS011;41275;51.912;4.388;2023-11-21T18:20:52;8.63;;;4.10;;
21546;SDS011;41275;51.912;4.388;2023-11-21T18:26:17;11.17;;;4.40;;
21546;SDS011;41275;51.912;4.388;2023-11-21T18:31:41;7.68;;;4.10;;
21546;SDS011;41275;51.912;4.388;2023-11-21T18:37:02;8.05;;;3.40;;
21546;SDS011;41275;51.912;4.388;2023-11-21T18:42:24;7.10;;;3.70;;
21546;SDS011;41275;51.912;4.388;2023-11-21T18:47:45;8.00;;;4.00;;
21546;SDS011;41275;51.912;4.388;2023-11-21T18:53:06;10.50;;;4.30;;
21546;SDS011;41275;51.912;4.388;2023-11-21T18:58:28;8.73;;;3.95;;
21546;SDS011;41275;51.912;4.388;2023-11-21T19:03:49;7.55;;;3.67;;
21546;SDS011;41275;51.912;4.388;2023-11-21T19:09:10;10.20;;;4.00;;
21546;SDS011;41275;51.912;4.388;2023-11-21T19:14:32;8.33;;;3.77;;
21546;SDS011;41275;51.912;4.388;2023-11-21T19:19:54;7.68;;;3.60;;
21546;SDS011;41275;51.912;4.388;2023-11-21T19:25:15;8.80;;;4.03;;
21546;SDS011;41275;51.912;4.388;2023-11-21T19:30:36;8.63;;;4.20;;
21546;SDS011;41275;51.912;4.388;2023-11-21T19:35:59;9.40;;;4.28;;
21546;SDS011;41275;51.912;4.388;2023-11-21T19:41:21;8.93;;;3.97;;
21546;SDS011;41275;51.912;4.388;2023-11-21T19:46:42;7.50;;;3.85;;
21546;SDS011;41275;51.912;4.388;2023-11-21T19:52:04;8.18;;;4.18;;
21546;SDS011;41275;51.912;4.388;2023-11-21T19:57:27;9.63;;;4.50;;
21546;SDS011;41275;51.912;4.388;2023-11-21T20:02:48;7.47;;;3.77;;
21546;SDS011;41275;51.912;4.388;2023-11-21T20:08:10;8.40;;;4.10;;
21546;SDS011;41275;51.912;4.388;2023-11-21T20:13:32;9.80;;;4.50;;
21546;SDS011;41275;51.912;4.388;2023-11-21T20:18:53;8.80;;;4.20;;
21546;SDS011;41275;51.912;4.388;2023-11-21T20:24:15;7.53;;;4.10;;
21546;SDS011;41275;51.912;4.388;2023-11-21T20:29:36;9.50;;;4.25;;
21546;SDS011;41275;51.912;4.388;2023-11-21T20:35:00;11.30;;;5.00;;
21546;SDS011;41275;51.912;4.388;2023-11-21T20:40:22;9.77;;;4.55;;
21546;SDS011;41275;51.912;4.388;2023-11-21T20:45:59;10.32;;;4.60;;
21546;SDS011;41275;51.912;4.388;2023-11-21T20:51:23;9.32;;;4.43;;
21546;SDS011;41275;51.912;4.388;2023-11-21T20:56:45;10.33;;;4.40;;
21546;SDS011;41275;51.912;4.388;2023-11-21T21:02:06;11.27;;;5.03;;
21546;SDS011;41275;51.912;4.388;2023-11-21T21:07:28;10.65;;;4.30;;
21546;SDS011;41275;51.912;4.388;2023-11-21T21:12:50;9.23;;;4.70;;
21546;SDS011;41275;51.912;4.388;2023-11-21T21:18:11;8.20;;;4.70;;
21546;SDS011;41275;51.912;4.388;2023-11-21T21:23:32;10.93;;;5.37;;
21546;SDS011;41275;51.912;4.388;2023-11-21T21:28:54;9.70;;;4.90;;
21546;SDS011;41275;51.912;4.388;2023-11-21T21:34:17;10.82;;;5.07;;
21546;SDS011;41275;51.912;4.388;2023-11-21T21:39:39;10.67;;;5.23;;
21546;SDS011;41275;51.912;4.388;2023-11-21T21:45:00;10.27;;;5.22;;
21546;SDS011;41275;51.912;4.388;2023-11-21T21:50:22;12.15;;;5.25;;
21546;SDS011;41275;51.912;4.388;2023-11-21T21:55:45;12.00;;;5.27;;
21546;SDS011;41275;51.912;4.388;2023-11-21T22:01:07;11.20;;;4.68;;
21546;SDS011;41275;51.912;4.388;2023-11-21T22:06:29;10.40;;;4.45;;
21546;SDS011;41275;51.912;4.388;2023-11-21T22:11:50;8.93;;;4.70;;
21546;SDS011;41275;51.912;4.388;2023-11-21T22:17:11;9.75;;;4.80;;
21546;SDS011;41275;51.912;4.388;2023-11-21T22:22:35;11.83;;;5.73;;
21546;SDS011;41275;51.912;4.388;2023-11-21T22:27:56;10.00;;;4.47;;
21546;SDS011;41275;51.912;4.388;2023-11-21T22:33:18;9.67;;;5.03;;
21546;SDS011;41275;51.912;4.388;2023-11-21T22:38:40;12.10;;;5.63;;
21546;SDS011;41275;51.912;4.388;2023-11-21T22:44:02;16.25;;;7.07;;
21546;SDS011;41275;51.912;4.388;2023-11-21T22:49:23;11.47;;;5.83;;
21546;SDS011;41275;51.912;4.388;2023-11-21T22:54:45;13.47;;;6.33;;
21546;SDS011;41275;51.912;4.388;2023-11-21T23:00:06;14.73;;;6.32;;
21546;SDS011;41275;51.912;4.388;2023-11-21T23:05:32;13.00;;;6.03;;
21546;SDS011;41275;51.912;4.388;2023-11-21T23:10:53;13.82;;;6.57;;
21546;SDS011;41275;51.912;4.388;2023-11-21T23:16:15;11.90;;;6.13;;
21546;SDS011;41275;51.912;4.388;2023-11-21T23:21:38;15.52;;;6.85;;
21546;SDS011;41275;51.912;4.388;2023-11-21T23:27:00;16.65;;;8.93;;
21546;SDS011;41275;51.912;4.388;2023-11-21T23:32:21;16.92;;;8.05;;
21546;SDS011;41275;51.912;4.388;2023-11-21T23:37:43;12.70;;;6.63;;
21546;SDS011;41275;51.912;4.388;2023-11-21T23:43:04;15.80;;;7.57;;
21546;SDS011;41275;51.912;4.388;2023-11-21T23:48:25;12.80;;;7.00;;
21546;SDS011;41275;51.912;4.388;2023-11-21T23:53:47;13.98;;;7.07;;
21546;SDS011;41275;51.912;4.388;2023-11-21T23:59:08;13.23;;;6.75;;
